Time;durP1;ratioP1;P1;durP2;ratioP2;P2;SDS_P1;SDS_P2;PMS_P1;PMS_P2;Temp;Humidity;BMP_temperature;BMP_pressure;BME280_temperature;BME280_humidity;BME280_pressure;Samples;Min_cycle;Max_cycle;Signal;HPM_P1;HPM_P2
2022/06/10 00:00:06;;;;;;;6.95;6.22;;;19.80;62.70;;;;;;6170188;23;20156;-87
2022/06/10 00:02:31;;;;;;;7.40;6.60;;;19.80;62.80;;;;;;6195313;23;20442;-86
2022/06/10 00:04:57;;;;;;;7.07;6.35;;;19.80;62.90;;;;;;6170687;23;20156;-87
2022/06/10 00:07:24;;;;;;;8.00;6.93;;;19.80;62.90;;;;;;6194954;23;20160;-87
2022/06/10 00:09:50;;;;;;;6.85;6.15;;;19.70;62.90;;;;;;6170770;23;20149;-87
2022/06/10 00:12:15;;;;;;;7.80;6.60;;;19.70;62.90;;;;;;6170495;23;20191;-87
2022/06/10 00:14:41;;;;;;;7.60;6.70;;;19.70;62.90;;;;;;6220346;23;20451;-86
2022/06/10 00:17:07;;;;;;;7.78;6.88;;;19.70;62.90;;;;;;6195077;23;20232;-87
2022/06/10 00:19:32;;;;;;;7.53;6.47;;;19.70;63.00;;;;;;6170465;23;20149;-86
2022/06/10 00:21:58;;;;;;;7.57;6.78;;;19.70;63.00;;;;;;6219643;23;20138;-87
2022/06/10 00:24:24;;;;;;;7.82;6.90;;;19.70;63.00;;;;;;6219889;23;20154;-86
2022/06/10 00:26:49;;;;;;;7.65;6.88;;;19.80;63.00;;;;;;6194769;23;20569;-86
2022/06/10 00:29:15;;;;;;;7.03;6.32;;;19.70;63.00;;;;;;6194871;23;20527;-87
2022/06/10 00:31:41;;;;;;;7.75;6.95;;;19.70;63.00;;;;;;6219955;23;20165;-86
2022/06/10 00:34:06;;;;;;;7.35;6.40;;;19.70;63.00;;;;;;6195032;23;20150;-87
2022/06/10 00:36:32;;;;;;;7.50;6.78;;;19.70;63.10;;;;;;6246532;23;20130;-87
2022/06/10 00:38:59;;;;;;;7.50;6.53;;;19.70;63.10;;;;;;6219892;23;20145;-87
2022/06/10 00:41:25;;;;;;;7.75;6.95;;;19.70;63.10;;;;;;6195132;23;20226;-87
2022/06/10 00:43:51;;;;;;;7.40;6.55;;;19.70;63.00;;;;;;6195193;23;20672;-87
2022/06/10 00:46:24;;;;;;;7.25;6.40;;;19.70;63.10;;;;;;6194602;23;20248;-87
2022/06/10 00:48:58;;;;;;;7.88;6.97;;;19.70;63.10;;;;;;6170369;23;20565;-87
2022/06/10 00:51:37;;;;;;;7.43;6.43;;;19.70;63.10;;;;;;6150578;23;20656;-86
2022/06/10 00:54:23;;;;;;;7.50;6.70;;;19.70;63.10;;;;;;6111590;23;20229;-86
2022/06/10 00:56:53;;;;;;;7.53;6.63;;;19.70;63.10;;;;;;6171303;23;20146;-87
2022/06/10 00:59:22;;;;;;;6.70;6.00;;;19.60;63.00;;;;;;6164396;23;20142;-87
2022/06/10 01:01:52;;;;;;;7.07;6.38;;;19.70;63.10;;;;;;6165011;23;20436;-87
2022/06/10 01:04:18;;;;;;;6.75;6.10;;;19.70;63.20;;;;;;6165106;23;20589;-87
2022/06/10 01:06:44;;;;;;;7.60;6.80;;;19.60;63.10;;;;;;6139932;23;20493;-87
2022/06/10 01:09:09;;;;;;;7.28;6.57;;;19.60;63.20;;;;;;6189693;23;20133;-87
2022/06/10 01:11:54;;;;;;;7.22;6.53;;;19.60;63.20;;;;;;6164297;23;20177;-87
2022/06/10 01:14:44;;;;;;;7.82;7.00;;;19.60;63.10;;;;;;6191992;23;20130;-87
2022/06/10 01:17:30;;;;;;;7.30;6.57;;;19.60;64.00;;;;;;6173123;23;20229;-87
2022/06/10 01:20:35;;;;;;;7.32;6.60;;;19.60;63.20;;;;;;6164618;23;20570;-87
2022/06/10 01:23:24;;;;;;;7.47;6.68;;;19.70;63.30;;;;;;6144503;23;20149;-87
2022/06/10 01:26:12;;;;;;;7.68;6.88;;;19.60;63.30;;;;;;6189181;23;20264;-87
2022/06/10 01:29:02;;;;;;;7.88;6.65;;;19.60;63.20;;;;;;6189757;23;20193;-86
2022/06/10 01:31:34;;;;;;;7.93;6.90;;;19.60;63.20;;;;;;6208097;23;20165;-87
2022/06/10 01:34:13;;;;;;;7.45;6.60;;;19.60;63.20;;;;;;6147435;23;20146;-87
2022/06/10 01:37:02;;;;;;;7.18;6.43;;;19.60;63.20;;;;;;6190230;23;20141;-87
2022/06/10 01:39:56;;;;;;;7.40;6.60;;;19.60;63.40;;;;;;6189091;23;20149;-86
2022/06/10 01:42:30;;;;;;;6.85;6.15;;;19.60;63.40;;;;;;6159142;23;20143;-87
2022/06/10 01:45:15;;;;;;;6.90;6.20;;;19.60;63.40;;;;;;6140043;23;20152;-87
2022/06/10 01:47:46;;;;;;;6.60;5.90;;;19.60;63.40;;;;;;6193185;23;20137;-87
2022/06/10 01:50:15;;;;;;;7.30;6.47;;;19.60;63.40;;;;;;6159760;23;20194;-87
2022/06/10 01:52:58;;;;;;;7.88;6.82;;;19.60;63.40;;;;;;6161428;23;20215;-87
2022/06/10 01:55:46;;;;;;;7.97;6.82;;;19.60;63.40;;;;;;6189389;23;20209;-87
2022/06/10 01:58:30;;;;;;;7.35;6.65;;;19.60;63.40;;;;;;6193711;23;20555;-88
2022/06/10 02:01:05;;;;;;;7.72;6.60;;;19.60;63.40;;;;;;6189223;23;20597;-87
2022/06/10 02:03:36;;;;;;;6.93;6.22;;;19.50;63.40;;;;;;6165740;23;20484;-87
2022/06/10 02:06:07;;;;;;;6.90;6.15;;;19.60;63.50;;;;;;6164760;23;20234;-86
2022/06/10 02:08:40;;;;;;;7.25;6.53;;;19.60;63.50;;;;;;6165107;23;20131;-87
2022/06/10 02:11:08;;;;;;;7.35;6.45;;;19.60;63.50;;;;;;6188969;23;20165;-86
2022/06/10 02:13:40;;;;;;;7.22;6.22;;;19.60;63.50;;;;;;6164066;23;20171;-87
2022/06/10 02:16:09;;;;;;;6.63;5.93;;;19.50;63.50;;;;;;6140904;23;20154;-86
2022/06/10 02:18:45;;;;;;;7.18;6.47;;;19.50;63.50;;;;;;6164931;23;20499;-86
2022/06/10 02:21:26;;;;;;;6.88;6.18;;;19.50;63.50;;;;;;6142426;23;20153;-87
2022/06/10 02:24:03;;;;;;;7.90;6.70;;;19.50;63.50;;;;;;6142901;23;20150;-87
2022/06/10 02:26:31;;;;;;;7.95;6.82;;;19.60;63.60;;;;;;6167107;23;20489;-86
2022/06/10 02:28:56;;;;;;;8.05;7.00;;;19.50;63.50;;;;;;6141516;23;20530;-87
2022/06/10 02:31:24;;;;;;;7.72;6.93;;;19.50;64.40;;;;;;6166180;23;20130;-86
2022/06/10 02:33:50;;;;;;;7.05;6.35;;;19.50;63.50;;;;;;6166458;23;20131;-87
2022/06/10 02:36:36;;;;;;;7.47;6.65;;;19.50;63.50;;;;;;6190848;23;20130;-87
2022/06/10 02:39:18;;;;;;;7.57;6.63;;;19.50;63.60;;;;;;6169840;23;20532;-86
2022/06/10 02:42:02;;;;;;;7.20;6.43;;;19.50;63.60;;;;;;6168437;23;20330;-86
2022/06/10 02:44:41;;;;;;;7.28;6.38;;;19.50;63.60;;;;;;6190740;23;20180;-86
2022/06/10 02:47:26;;;;;;;7.78;6.97;;;19.50;63.60;;;;;;6166292;23;20461;-87
2022/06/10 02:49:52;;;;;;;7.20;6.50;;;19.50;63.60;;;;;;6190513;23;20560;-87
2022/06/10 02:52:17;;;;;;;7.60;6.60;;;19.50;63.60;;;;;;6188283;23;20211;-87
2022/06/10 02:54:43;;;;;;;7.35;6.50;;;19.50;63.60;;;;;;6171196;23;20138;-87
2022/06/10 02:57:18;;;;;;;7.53;6.30;;;19.50;63.60;;;;;;6220700;23;20552;-86
2022/06/10 03:02:49;;;;;;;6.90;6.20;;;19.50;63.60;;;;;;6201608;23;20196;-86
2022/06/10 03:05:35;;;;;;;7.40;6.60;;;19.50;63.60;;;;;;6175811;23;20211;-87
2022/06/10 03:08:25;;;;;;;7.18;6.40;;;19.50;63.60;;;;;;6220532;23;20141;-87
2022/06/10 03:11:15;;;;;;;7.38;6.60;;;19.50;63.70;;;;;;6195420;23;20165;-87
2022/06/10 03:14:08;;;;;;;6.97;6.28;;;19.50;63.70;;;;;;6173636;23;20157;-86
2022/06/10 03:16:50;;;;;;;7.20;6.47;;;19.60;63.80;;;;;;6220812;23;20145;-86
2022/06/10 03:19:38;;;;;;;6.90;6.20;;;19.50;63.70;;;;;;6222934;23;20155;-87
2022/06/10 03:22:16;;;;;;;7.57;6.78;;;19.50;63.70;;;;;;6220539;23;20576;-87
2022/06/10 03:25:10;;;;;;;7.03;6.32;;;19.50;63.70;;;;;;6171826;23;20149;-87
2022/06/10 03:27:41;;;;;;;7.03;5.97;;;19.50;63.70;;;;;;6220625;23;20138;-87
2022/06/10 03:30:12;;;;;;;6.82;6.13;;;19.50;63.70;;;;;;6196972;23;20469;-87
2022/06/10 03:32:46;;;;;;;7.25;6.35;;;19.50;63.80;;;;;;6171454;23;20224;-87
2022/06/10 03:35:15;;;;;;;6.82;6.03;;;19.50;63.70;;;;;;6196695;23;20220;-87
2022/06/10 03:37:42;;;;;;;7.18;6.45;;;19.50;63.60;;;;;;6171755;23;20173;-87
2022/06/10 03:40:21;;;;;;;7.43;6.63;;;19.50;63.60;;;;;;6220805;23;20140;-87
2022/06/10 03:42:50;;;;;;;6.80;5.93;;;19.50;63.60;;;;;;6197315;23;20133;-87
2022/06/10 03:45:17;;;;;;;7.22;6.13;;;19.50;63.70;;;;;;6220557;23;20141;-88
2022/06/10 03:47:43;;;;;;;7.43;6.50;;;19.50;63.70;;;;;;6195538;23;20134;-88
2022/06/10 03:50:10;;;;;;;6.93;6.05;;;19.60;63.70;;;;;;6195810;23;20130;-87
2022/06/10 03:52:37;;;;;;;7.30;6.50;;;19.50;63.60;;;;;;6171052;23;20631;-87
2022/06/10 03:55:04;;;;;;;6.78;6.07;;;19.40;63.50;;;;;;6196037;23;20130;-87
2022/06/10 03:57:30;;;;;;;7.80;6.70;;;19.50;63.60;;;;;;6220837;23;20157;-87
2022/06/10 03:59:55;;;;;;;7.20;6.28;;;19.50;63.60;;;;;;6195631;23;20134;-88
2022/06/10 04:02:21;;;;;;;6.95;6.20;;;19.50;63.60;;;;;;6220782;23;20133;-87
2022/06/10 04:04:46;;;;;;;7.40;6.50;;;19.40;63.60;;;;;;6220893;23;20149;-87
2022/06/10 04:07:14;;;;;;;7.70;6.75;;;19.50;63.60;;;;;;6170462;23;20150;-87
2022/06/10 04:09:40;;;;;;;7.22;6.45;;;19.50;63.80;;;;;;6170881;23;20492;-86
2022/06/10 04:12:06;;;;;;;6.88;6.18;;;19.50;63.70;;;;;;6170517;23;20177;-87
2022/06/10 04:14:32;;;;;;;6.90;6.05;;;19.40;63.60;;;;;;6171356;23;20141;-87
2022/06/10 04:16:58;;;;;;;6.78;6.07;;;19.50;63.70;;;;;;6170905;23;20627;-87
2022/06/10 04:19:23;;;;;;;7.43;6.47;;;19.50;63.80;;;;;;6195760;23;20145;-87
2022/06/10 04:21:49;;;;;;;7.88;6.72;;;19.40;63.70;;;;;;6245072;23;20180;-88
2022/06/10 04:24:15;;;;;;;6.93;5.97;;;19.50;63.80;;;;;;6171070;23;20635;-88
2022/06/10 04:26:41;;;;;;;7.07;6.35;;;19.50;63.70;;;;;;6194876;23;20192;-87
2022/06/10 04:29:06;;;;;;;7.45;6.32;;;19.40;63.60;;;;;;6169992;23;20203;-87
2022/06/10 04:31:32;;;;;;;6.70;5.85;;;19.50;63.80;;;;;;6219819;23;20171;-87
2022/06/10 04:33:58;;;;;;;6.80;6.03;;;19.50;63.80;;;;;;6195251;23;20148;-88
2022/06/10 04:36:23;;;;;;;7.63;6.78;;;19.50;63.70;;;;;;6170401;23;20183;-87
2022/06/10 04:38:49;;;;;;;7.88;6.65;;;19.50;63.80;;;;;;6219846;23;20130;-87
2022/06/10 04:41:15;;;;;;;7.10;6.40;;;19.40;63.80;;;;;;6219935;23;20144;-87
2022/06/10 04:43:42;;;;;;;6.85;5.93;;;19.40;63.80;;;;;;6219622;23;20213;-87
2022/06/10 04:46:22;;;;;;;7.03;6.32;;;19.40;63.80;;;;;;6220005;23;20133;-86
2022/06/10 04:48:49;;;;;;;6.93;6.20;;;19.40;63.80;;;;;;6220191;23;20138;-88
2022/06/10 04:51:14;;;;;;;6.88;6.18;;;19.40;63.80;;;;;;6194294;23;20275;-86
2022/06/10 04:53:40;;;;;;;6.85;6.15;;;19.50;63.80;;;;;;6169784;23;20177;-87
2022/06/10 04:56:06;;;;;;;6.72;6.03;;;19.50;63.60;;;;;;6220457;23;20587;-87
2022/06/10 04:58:31;;;;;;;7.55;5.75;;;19.50;63.80;;;;;;6169903;23;20153;-87
2022/06/10 05:00:57;;;;;;;6.10;5.50;;;19.50;63.60;;;;;;6219903;23;20213;-87
2022/06/10 05:03:23;;;;;;;7.13;6.35;;;19.50;63.60;;;;;;6195180;23;20232;-86
2022/06/10 05:05:49;;;;;;;6.88;6.18;;;19.40;63.60;;;;;;6219359;23;20133;-87
2022/06/10 05:08:17;;;;;;;7.03;6.18;;;19.50;63.80;;;;;;6244780;23;20146;-87
2022/06/10 05:10:42;;;;;;;6.57;5.80;;;19.50;63.90;;;;;;6195223;23;20125;-87
2022/06/10 05:13:08;;;;;;;6.43;5.82;;;19.40;63.90;;;;;;6194578;23;20161;-86
2022/06/10 05:15:34;;;;;;;6.60;5.90;;;19.40;64.00;;;;;;6169619;23;20141;-86
2022/06/10 05:18:00;;;;;;;5.93;5.20;;;19.40;64.30;;;;;;6169599;23;20141;-86
2022/06/10 05:20:30;;;;;;;6.20;5.60;;;19.30;64.20;;;;;;6219612;23;20142;-87
2022/06/10 05:22:55;;;;;;;6.18;5.57;;;19.40;64.50;;;;;;6195140;23;20141;-87
2022/06/10 05:25:21;;;;;;;6.78;5.82;;;19.30;64.40;;;;;;6194514;23;20134;-86
2022/06/10 05:27:47;;;;;;;5.88;5.28;;;19.30;64.60;;;;;;6219433;23;20134;-87
2022/06/10 05:30:16;;;;;;;6.38;5.45;;;19.30;64.60;;;;;;6194727;23;20233;-87
2022/06/10 05:32:42;;;;;;;6.70;5.80;;;19.30;64.70;;;;;;6194830;23;20244;-87
2022/06/10 05:35:09;;;;;;;6.28;5.55;;;19.30;64.70;;;;;;6194472;23;20177;-87
2022/06/10 05:37:34;;;;;;;5.82;5.22;;;19.30;64.70;;;;;;6194808;23;20145;-87
2022/06/10 05:40:01;;;;;;;6.15;5.40;;;19.30;64.70;;;;;;6169148;23;20215;-87
2022/06/10 05:42:27;;;;;;;5.68;5.07;;;19.30;64.80;;;;;;6169493;23;20180;-87
2022/06/10 05:44:52;;;;;;;5.68;5.05;;;19.30;64.90;;;;;;6194328;23;20458;-87
2022/06/10 05:47:22;;;;;;;6.28;5.40;;;19.30;65.00;;;;;;6219286;23;20140;-87
2022/06/10 05:49:50;;;;;;;6.53;5.68;;;19.30;64.90;;;;;;6194466;23;20130;-87
2022/06/10 05:52:17;;;;;;;5.82;5.22;;;19.30;65.80;;;;;;6169791;23;20528;-87
2022/06/10 05:54:45;;;;;;;6.72;5.65;;;19.30;65.00;;;;;;6194277;23;20134;-87
2022/06/10 05:57:12;;;;;;;5.80;5.20;;;19.30;64.90;;;;;;6170748;23;20153;-86
2022/06/10 05:59:38;;;;;;;5.28;4.78;;;19.30;65.00;;;;;;6196822;23;20161;-87
2022/06/10 06:02:05;;;;;;;6.22;5.63;;;19.30;65.00;;;;;;6171723;23;20145;-87
2022/06/10 06:04:31;;;;;;;6.43;5.60;;;19.30;65.00;;;;;;6171595;23;20580;-87
2022/06/10 06:06:58;;;;;;;6.07;5.47;;;19.30;65.20;;;;;;6196019;23;20149;-87
2022/06/10 06:09:23;;;;;;;6.60;5.60;;;19.30;65.20;;;;;;6195774;23;20462;-87
2022/06/10 06:11:50;;;;;;;6.07;5.47;;;19.20;65.20;;;;;;6171310;23;20173;-87
2022/06/10 06:14:18;;;;;;;5.70;5.10;;;19.10;65.30;;;;;;6196355;23;20141;-88
2022/06/10 06:16:47;;;;;;;6.30;5.32;;;19.30;65.40;;;;;;6172003;23;20141;-88
2022/06/10 06:19:13;;;;;;;6.10;5.43;;;19.20;65.40;;;;;;6196477;23;20130;-87
2022/06/10 06:21:41;;;;;;;5.80;5.03;;;19.20;65.40;;;;;;6221555;23;20144;-88
2022/06/10 06:24:07;;;;;;;6.45;5.53;;;19.20;65.50;;;;;;6196197;23;20160;-88
2022/06/10 06:26:33;;;;;;;5.65;5.05;;;19.30;65.60;;;;;;6196501;23;20149;-87
2022/06/10 06:28:59;;;;;;;6.22;5.63;;;19.20;65.60;;;;;;6195996;23;20563;-87
2022/06/10 06:31:25;;;;;;;6.15;5.55;;;19.10;65.50;;;;;;6196775;23;20137;-87
2022/06/10 06:33:51;;;;;;;6.15;5.32;;;19.20;65.50;;;;;;6172047;23;20191;-88
2022/06/10 06:36:19;;;;;;;6.07;5.22;;;19.10;65.40;;;;;;6170897;23;20149;-87
2022/06/10 06:38:45;;;;;;;6.43;5.65;;;19.20;65.50;;;;;;6221144;23;20156;-88
2022/06/10 06:41:13;;;;;;;5.90;5.30;;;19.20;65.40;;;;;;6171287;23;20141;-87
2022/06/10 06:43:39;;;;;;;6.38;5.57;;;19.20;65.40;;;;;;6171096;23;20149;-88
2022/06/10 06:46:06;;;;;;;6.00;5.40;;;19.20;65.30;;;;;;6171360;23;20146;-87
2022/06/10 06:48:32;;;;;;;6.47;5.50;;;19.20;65.20;;;;;;6195883;23;20172;-87
2022/06/10 06:50:57;;;;;;;6.65;5.80;;;19.20;65.10;;;;;;6195763;23;20197;-87
2022/06/10 06:53:23;;;;;;;6.20;5.60;;;19.20;65.20;;;;;;6170809;23;20219;-86
2022/06/10 06:55:49;;;;;;;6.18;5.47;;;19.20;65.10;;;;;;6195844;23;20213;-86
2022/06/10 06:58:16;;;;;;;5.70;5.10;;;19.20;65.20;;;;;;6196328;23;20224;-87
2022/06/10 07:00:43;;;;;;;6.68;5.88;;;19.20;65.20;;;;;;6171749;23;20142;-87
2022/06/10 07:03:10;;;;;;;6.13;5.50;;;19.20;65.20;;;;;;6199007;23;20149;-88
2022/06/10 07:05:42;;;;;;;6.07;5.47;;;19.30;65.20;;;;;;6179097;23;20615;-89
2022/06/10 07:08:12;;;;;;;6.45;5.75;;;19.20;65.20;;;;;;6173601;23;20160;-89
2022/06/10 07:10:40;;;;;;;5.88;4.90;;;19.20;65.30;;;;;;6199252;23;20584;-88
2022/06/10 07:13:06;;;;;;;6.32;5.18;;;19.20;65.60;;;;;;6198793;23;20166;-88
2022/06/10 07:15:33;;;;;;;5.65;5.05;;;19.20;65.60;;;;;;6174995;23;20137;-87
2022/06/10 07:18:00;;;;;;;5.93;5.20;;;19.20;65.60;;;;;;6198263;23;20157;-87
2022/06/10 07:20:28;;;;;;;6.70;5.63;;;19.20;66.00;;;;;;6197496;23;20592;-88
2022/06/10 07:22:59;;;;;;;6.18;5.57;;;19.20;65.90;;;;;;6173233;23;20141;-87
2022/06/10 07:25:25;;;;;;;6.47;5.10;;;19.20;65.80;;;;;;6222749;23;20146;-87
2022/06/10 07:27:55;;;;;;;6.63;5.30;;;19.20;66.10;;;;;;6173392;23;20227;-87
2022/06/10 07:30:24;;;;;;;6.63;5.38;;;19.20;66.00;;;;;;6199155;23;20176;-88
2022/06/10 07:32:52;;;;;;;6.43;5.35;;;19.20;66.00;;;;;;6198595;23;20168;-88
2022/06/10 07:35:20;;;;;;;6.20;5.50;;;19.30;66.00;;;;;;6198406;23;20152;-87
2022/06/10 07:37:46;;;;;;;7.72;5.80;;;19.30;66.00;;;;;;6176240;23;20199;-87
2022/06/10 07:43:16;;;;;;;5.97;5.25;;;19.30;66.20;;;;;;6207594;23;20161;-87
2022/06/10 07:45:41;;;;;;;6.07;5.25;;;19.30;66.20;;;;;;6178832;23;20146;-87
2022/06/10 07:48:07;;;;;;;6.10;5.30;;;19.30;66.30;;;;;;6202830;23;20148;-88
2022/06/10 07:50:33;;;;;;;5.97;5.38;;;19.20;66.50;;;;;;6167315;23;20221;-88
2022/06/10 07:52:59;;;;;;;5.82;5.22;;;19.20;66.60;;;;;;6171187;23;20166;-88
2022/06/10 07:55:25;;;;;;;5.68;5.05;;;19.30;66.80;;;;;;6170852;23;20126;-87
2022/06/10 07:57:51;;;;;;;6.03;5.15;;;19.30;66.80;;;;;;6147092;23;20181;-87
2022/06/10 08:00:17;;;;;;;5.68;5.07;;;19.30;66.80;;;;;;6171713;23;20126;-88
2022/06/10 08:02:44;;;;;;;5.60;4.97;;;19.30;67.00;;;;;;6171532;23;20135;-87
2022/06/10 08:05:13;;;;;;;5.18;4.45;;;19.30;67.00;;;;;;6146171;23;20477;-87
2022/06/10 08:07:41;;;;;;;6.05;5.05;;;19.30;67.40;;;;;;6146049;23;20596;-88
2022/06/10 08:10:21;;;;;;;8.00;5.55;;;19.30;67.60;;;;;;6169665;23;20161;-88
2022/06/10 08:12:49;;;;;;;8.25;5.35;;;19.30;68.10;;;;;;6170594;23;20236;-87
2022/06/10 08:15:17;;;;;;;7.15;5.72;;;19.30;68.60;;;;;;6144605;23;20146;-87
2022/06/10 08:17:43;;;;;;;6.70;5.80;;;19.20;69.10;;;;;;6145700;23;20142;-88
2022/06/10 08:20:22;;;;;;;8.10;6.72;;;19.30;70.00;;;;;;6168609;23;20142;-87
2022/06/10 08:22:48;;;;;;;6.88;5.88;;;19.40;69.20;;;;;;6169318;23;20149;-87
2022/06/10 08:25:16;;;;;;;6.70;6.00;;;19.40;69.30;;;;;;6171177;23;20200;-88
2022/06/10 08:27:49;;;;;;;7.13;6.00;;;19.40;69.20;;;;;;6172003;23;20150;-87
2022/06/10 08:30:15;;;;;;;6.95;6.15;;;19.40;69.20;;;;;;6172968;23;20150;-87
2022/06/10 08:32:41;;;;;;;8.15;6.30;;;19.30;69.10;;;;;;6144418;23;20184;-88
2022/06/10 08:35:08;;;;;;;7.00;6.30;;;19.50;68.80;;;;;;6144039;23;20142;-86
2022/06/10 08:37:35;;;;;;;7.57;6.38;;;19.50;68.30;;;;;;6171660;23;20146;-88
2022/06/10 08:40:01;;;;;;;7.43;6.30;;;19.50;67.80;;;;;;6144125;23;20138;-87
2022/06/10 08:42:36;;;;;;;7.68;6.20;;;19.40;67.80;;;;;;6167445;23;20158;-87
2022/06/10 08:45:21;;;;;;;6.78;6.07;;;19.40;67.30;;;;;;6136608;23;20146;-87
2022/06/10 08:48:02;;;;;;;8.50;6.50;;;19.50;67.90;;;;;;6140252;23;20478;-88
2022/06/10 08:50:42;;;;;;;6.70;6.10;;;19.50;67.90;;;;;;6175030;23;20200;-87
2022/06/10 08:53:32;;;;;;;7.00;5.82;;;19.50;66.90;;;;;;6198546;23;20180;-86
2022/06/10 08:56:30;;;;;;;7.00;6.30;;;19.60;66.90;;;;;;6201612;23;20130;-87
2022/06/10 08:58:59;;;;;;;7.35;6.05;;;19.70;66.70;;;;;;6229081;23;20138;-87
2022/06/10 09:01:25;;;;;;;8.70;5.95;;;19.70;66.60;;;;;;6173121;23;20141;-88
2022/06/10 09:04:04;;;;;;;6.72;6.03;;;19.70;66.30;;;;;;6197134;23;20179;-88
2022/06/10 09:06:39;;;;;;;7.00;6.20;;;19.70;66.20;;;;;;6200021;23;20183;-88
2022/06/10 09:09:06;;;;;;;8.55;6.88;;;19.70;66.00;;;;;;6175450;23;20141;-87
2022/06/10 09:11:39;;;;;;;7.50;6.63;;;19.70;66.10;;;;;;6173406;23;20145;-88
2022/06/10 09:14:15;;;;;;;6.75;6.05;;;19.70;66.10;;;;;;6202905;23;20128;-88
2022/06/10 09:17:04;;;;;;;6.68;5.97;;;19.70;66.00;;;;;;6202451;23;20141;-88
2022/06/10 09:19:55;;;;;;;7.75;6.72;;;19.70;66.10;;;;;;6190185;23;20234;-88
2022/06/10 09:22:57;;;;;;;8.23;6.15;;;19.70;66.10;;;;;;6162833;23;20135;-88
2022/06/10 09:25:30;;;;;;;9.13;6.80;;;19.70;66.30;;;;;;6192664;23;20150;-87
2022/06/10 09:27:57;;;;;;;7.15;6.10;;;19.80;66.40;;;;;;6170305;23;20237;-87
2022/06/10 09:30:36;;;;;;;8.98;6.88;;;19.70;66.60;;;;;;6146224;23;20146;-88
2022/06/10 09:33:11;;;;;;;7.55;6.07;;;19.60;66.50;;;;;;6145739;23;20177;-87
2022/06/10 09:35:55;;;;;;;7.05;6.35;;;19.70;66.50;;;;;;6144686;23;20142;-87
2022/06/10 09:38:53;;;;;;;8.77;6.90;;;19.70;66.20;;;;;;6167514;23;20139;-87
2022/06/10 09:41:50;;;;;;;7.88;6.40;;;19.80;66.10;;;;;;6168091;23;20169;-87
2022/06/10 09:44:29;;;;;;;7.53;6.72;;;19.80;66.10;;;;;;6168497;23;20229;-86
2022/06/10 09:47:31;;;;;;;7.82;6.70;;;19.70;66.10;;;;;;6166302;23;20142;-88
2022/06/10 09:50:31;;;;;;;8.10;7.00;;;19.70;66.30;;;;;;6185503;23;20209;-87
2022/06/10 09:53:07;;;;;;;7.72;6.65;;;19.80;66.10;;;;;;6251757;23;20180;-87
2022/06/10 09:56:11;;;;;;;8.50;7.43;;;19.80;66.10;;;;;;6205823;23;20130;-87
2022/06/10 09:58:51;;;;;;;8.73;7.28;;;19.80;66.20;;;;;;6229698;23;20236;-87
2022/06/10 10:01:39;;;;;;;8.32;7.18;;;19.80;66.30;;;;;;6204198;23;20144;-86
2022/06/10 10:04:41;;;;;;;8.77;7.80;;;19.70;66.50;;;;;;6183996;23;20176;-87
2022/06/10 10:07:10;;;;;;;8.13;6.93;;;19.70;66.40;;;;;;6237382;23;20129;-87
2022/06/10 10:09:51;;;;;;;8.70;7.25;;;19.70;66.20;;;;;;6182751;23;20157;-87
2022/06/10 10:12:45;;;;;;;8.30;7.07;;;19.80;65.80;;;;;;6231414;23;20181;-87
2022/06/10 10:15:25;;;;;;;8.65;7.40;;;19.80;66.10;;;;;;6153017;23;20157;-87
2022/06/10 10:18:08;;;;;;;10.65;7.10;;;19.90;65.60;;;;;;6127253;23;20212;-87
2022/06/10 10:20:54;;;;;;;8.82;7.68;;;19.90;65.50;;;;;;6129553;23;20159;-89
2022/06/10 10:23:32;;;;;;;8.07;7.25;;;20.00;65.40;;;;;;6150517;23;20146;-87
2022/06/10 10:25:58;;;;;;;8.98;7.28;;;19.90;65.30;;;;;;6148094;23;20221;-88
2022/06/10 10:28:26;;;;;;;7.35;6.57;;;20.00;65.30;;;;;;6143464;23;20229;-89
2022/06/10 10:31:15;;;;;;;7.30;6.00;;;20.00;65.20;;;;;;6139073;23;20147;-88
2022/06/10 10:33:41;;;;;;;8.93;7.35;;;20.20;65.10;;;;;;6140663;23;20179;-88
2022/06/10 10:36:16;;;;;;;8.98;7.75;;;20.10;65.00;;;;;;6138504;23;20205;-87
2022/06/10 10:38:44;;;;;;;8.43;7.15;;;20.10;65.10;;;;;;6140478;23;20574;-87
2022/06/10 10:41:21;;;;;;;9.02;8.13;;;20.10;65.00;;;;;;6114008;23;20202;-88
2022/06/10 10:43:48;;;;;;;11.65;8.07;;;20.10;64.80;;;;;;6140929;23;20134;-89
2022/06/10 10:46:38;;;;;;;8.35;7.45;;;20.10;64.60;;;;;;6174890;23;20160;-89
2022/06/10 10:49:22;;;;;;;11.70;7.80;;;20.10;64.60;;;;;;6201117;23;20133;-87
2022/06/10 10:51:49;;;;;;;9.23;7.75;;;20.10;64.60;;;;;;6199644;23;20280;-86
2022/06/10 10:54:28;;;;;;;9.50;8.07;;;20.10;64.60;;;;;;6174081;23;20195;-87
2022/06/10 10:56:55;;;;;;;8.75;7.53;;;20.10;64.90;;;;;;6175959;23;20604;-87
2022/06/10 10:59:39;;;;;;;10.55;8.85;;;20.10;64.80;;;;;;6199031;23;20223;-87
2022/06/10 11:02:34;;;;;;;10.15;8.57;;;20.10;64.70;;;;;;6201961;23;20180;-88
2022/06/10 11:05:32;;;;;;;7.93;7.07;;;20.10;64.70;;;;;;6225485;23;20513;-87
2022/06/10 11:08:19;;;;;;;9.18;7.88;;;20.30;64.60;;;;;;6200289;23;20149;-87
2022/06/10 11:11:22;;;;;;;9.27;8.35;;;20.30;64.40;;;;;;6200769;23;20149;-85
2022/06/10 11:13:59;;;;;;;10.77;8.23;;;20.30;64.10;;;;;;6221137;23;20199;-87
2022/06/10 11:17:01;;;;;;;8.02;6.80;;;20.30;64.20;;;;;;6198019;23;20125;-87
2022/06/10 11:19:40;;;;;;;9.20;7.30;;;20.40;64.20;;;;;;6179631;23;20157;-87
2022/06/10 11:22:10;;;;;;;10.10;8.55;;;20.50;64.00;;;;;;6171833;23;20145;-87
2022/06/10 11:24:42;;;;;;;8.77;7.80;;;20.50;64.00;;;;;;6196707;23;20142;-86
2022/06/10 11:27:19;;;;;;;11.13;8.45;;;20.60;63.80;;;;;;6247637;23;20596;-85
2022/06/10 11:29:57;;;;;;;11.02;9.10;;;20.50;63.50;;;;;;6196528;23;20163;-87
2022/06/10 11:32:24;;;;;;;10.73;9.48;;;20.60;63.50;;;;;;6221306;23;20188;-86
2022/06/10 11:34:58;;;;;;;10.70;8.95;;;20.50;63.60;;;;;;6171469;23;20219;-87
2022/06/10 11:37:40;;;;;;;10.20;9.10;;;20.60;63.60;;;;;;6197153;23;20130;-86
2022/06/10 11:40:17;;;;;;;11.52;8.50;;;20.50;63.80;;;;;;6221429;23;20140;-87
2022/06/10 11:42:46;;;;;;;11.23;8.73;;;20.50;63.80;;;;;;6196043;23;20583;-88
2022/06/10 11:45:19;;;;;;;11.98;10.07;;;20.50;63.90;;;;;;6220193;23;20137;-87
2022/06/10 11:47:53;;;;;;;9.05;8.15;;;20.50;63.50;;;;;;6197347;23;20138;-88
2022/06/10 11:50:42;;;;;;;11.07;9.40;;;20.50;63.80;;;;;;6195837;23;20185;-87
2022/06/10 11:53:34;;;;;;;9.43;8.40;;;20.50;63.80;;;;;;6206278;23;20168;-87
2022/06/10 12:01:24;;;;;;;12.43;9.52;;;20.40;64.00;;;;;;6203409;23;20133;-88
2022/06/10 12:03:58;;;;;;;9.15;8.13;;;20.40;64.10;;;;;;6173244;23;20148;-87
2022/06/10 12:06:29;;;;;;;11.90;10.27;;;20.50;64.20;;;;;;6173463;23;20145;-87
2022/06/10 12:09:34;;;;;;;11.88;9.60;;;20.50;63.80;;;;;;6196857;23;20196;-87
2022/06/10 12:12:22;;;;;;;11.00;9.60;;;20.60;63.80;;;;;;6221544;23;20252;-86
2022/06/10 12:14:51;;;;;;;11.32;10.13;;;20.50;63.90;;;;;;6173341;23;20225;-87
2022/06/10 12:17:24;;;;;;;11.32;10.13;;;20.50;63.70;;;;;;6196703;23;20129;-87
2022/06/10 12:19:53;;;;;;;10.90;9.75;;;20.50;63.90;;;;;;6175321;23;20149;-88
2022/06/10 12:22:20;;;;;;;10.48;8.57;;;20.40;64.00;;;;;;6199281;23;20152;-88
2022/06/10 12:24:47;;;;;;;12.10;10.10;;;20.50;64.10;;;;;;6223943;23;20156;-87
2022/06/10 12:27:18;;;;;;;10.52;9.43;;;20.60;63.80;;;;;;6224034;23;20134;-87
2022/06/10 12:29:50;;;;;;;11.95;10.65;;;20.50;63.90;;;;;;6173177;23;20149;-88
2022/06/10 12:32:28;;;;;;;12.88;11.02;;;20.50;63.80;;;;;;6200223;23;20669;-89
2022/06/10 12:35:16;;;;;;;12.43;10.07;;;20.50;64.00;;;;;;6224924;23;20203;-87
2022/06/10 12:37:51;;;;;;;9.90;8.90;;;20.50;63.90;;;;;;6225296;23;20130;-87
2022/06/10 12:40:31;;;;;;;11.70;10.40;;;20.60;63.80;;;;;;6196584;23;20144;-87
2022/06/10 12:43:00;;;;;;;12.98;10.75;;;20.60;63.70;;;;;;6175824;23;20149;-87
2022/06/10 12:45:31;;;;;;;13.55;11.18;;;20.60;63.80;;;;;;6171506;23;20149;-86
2022/06/10 12:47:59;;;;;;;12.00;10.13;;;20.60;63.80;;;;;;6196056;23;20180;-86
2022/06/10 12:50:28;;;;;;;11.82;10.57;;;20.60;63.70;;;;;;6164410;23;20197;-87
2022/06/10 12:53:26;;;;;;;11.32;9.82;;;20.70;63.60;;;;;;6189800;23;20188;-87
2022/06/10 12:55:54;;;;;;;11.45;10.10;;;20.70;63.60;;;;;;6197069;23;20225;-86
2022/06/10 12:58:40;;;;;;;10.30;9.23;;;20.70;63.40;;;;;;6191146;23;20149;-87
2022/06/10 13:01:43;;;;;;;12.18;10.30;;;20.80;63.30;;;;;;6166484;23;20242;-86
2022/06/10 13:04:49;;;;;;;12.73;11.20;;;20.90;63.20;;;;;;6190506;23;20160;-87
2022/06/10 13:07:36;;;;;;;10.60;9.13;;;20.80;63.20;;;;;;6199957;23;20586;-88
2022/06/10 13:10:34;;;;;;;10.85;9.75;;;20.90;63.50;;;;;;6167247;23;20145;-87
2022/06/10 13:13:18;;;;;;;13.27;11.57;;;20.90;63.30;;;;;;6169913;23;20516;-89
2022/06/10 13:15:44;;;;;;;12.00;10.70;;;20.80;63.10;;;;;;6165997;23;20174;-87
2022/06/10 13:18:31;;;;;;;14.95;11.60;;;20.90;63.30;;;;;;6190058;23;20131;-89
2022/06/10 13:20:57;;;;;;;13.65;10.25;;;20.80;63.20;;;;;;6194046;23;20512;-86
2022/06/10 13:23:24;;;;;;;13.15;11.65;;;20.90;63.50;;;;;;6189872;23;20209;-87
2022/06/10 13:26:12;;;;;;;11.27;10.07;;;20.80;63.20;;;;;;6165104;23;20200;-88
2022/06/10 13:28:40;;;;;;;14.20;12.07;;;20.90;63.50;;;;;;6194194;23;20145;-87